sensor_id;sensor_type;location;lat;lon;timestamp;temperature;humidity
6291;DHT22;3178;48.730;8.990;2023-02-15T00:01:37;1.50;99.90
6291;DHT22;3178;48.730;8.990;2023-02-15T00:04:03;1.50;99.90
6291;DHT22;3178;48.730;8.990;2023-02-15T00:06:29;1.50;99.90
6291;DHT22;3178;48.730;8.990;2023-02-15T00:08:55;1.50;99.90
6291;DHT22;3178;48.730;8.990;2023-02-15T00:11:21;1.50;99.90
6291;DHT22;3178;48.730;8.990;2023-02-15T00:14:28;1.50;99.90
6291;DHT22;3178;48.730;8.990;2023-02-15T00:16:55;1.50;99.90
6291;DHT22;3178;48.730;8.990;2023-02-15T00:19:21;1.50;99.90
6291;DHT22;3178;48.730;8.990;2023-02-15T00:21:47;1.50;99.90
6291;DHT22;3178;48.730;8.990;2023-02-15T00:24:15;1.50;99.90
6291;DHT22;3178;48.730;8.990;2023-02-15T00:26:42;1.50;99.90
6291;DHT22;3178;48.730;8.990;2023-02-15T00:29:09;1.50;99.90
6291;DHT22;3178;48.730;8.990;2023-02-15T00:31:35;1.50;99.90
6291;DHT22;3178;48.730;8.990;2023-02-15T00:34:07;1.50;99.90
6291;DHT22;3178;48.730;8.990;2023-02-15T00:36:33;1.50;99.90
6291;DHT22;3178;48.730;8.990;2023-02-15T00:38:58;1.50;99.90
6291;DHT22;3178;48.730;8.990;2023-02-15T00:41:24;1.50;99.90
6291;DHT22;3178;48.730;8.990;2023-02-15T00:43:50;1.50;99.90
6291;DHT22;3178;48.730;8.990;2023-02-15T00:46:15;1.40;99.90
6291;DHT22;3178;48.730;8.990;2023-02-15T00:48:41;1.50;99.90
6291;DHT22;3178;48.730;8.990;2023-02-15T00:51:06;1.50;99.90
6291;DHT22;3178;48.730;8.990;2023-02-15T00:53:32;1.40;99.90
6291;DHT22;3178;48.730;8.990;2023-02-15T00:55:58;1.40;99.90
6291;DHT22;3178;48.730;8.990;2023-02-15T00:58:24;1.40;99.90
6291;DHT22;3178;48.730;8.990;2023-02-15T01:00:50;1.40;99.90
6291;DHT22;3178;48.730;8.990;2023-02-15T01:03:17;1.40;99.90
6291;DHT22;3178;48.730;8.990;2023-02-15T01:05:43;1.40;99.90
6291;DHT22;3178;48.730;8.990;2023-02-15T01:08:09;1.40;99.90
6291;DHT22;3178;48.730;8.990;2023-02-15T01:10:36;1.40;99.90
6291;DHT22;3178;48.730;8.990;2023-02-15T01:13:01;1.30;99.90
6291;DHT22;3178;48.730;8.990;2023-02-15T01:15:27;1.30;99.90
6291;DHT22;3178;48.730;8.990;2023-02-15T01:17:53;1.30;99.90
6291;DHT22;3178;48.730;8.990;2023-02-15T01:20:20;1.30;99.90
6291;DHT22;3178;48.730;8.990;2023-02-15T01:22:46;1.30;99.90
6291;DHT22;3178;48.730;8.990;2023-02-15T01:25:12;1.30;99.90
6291;DHT22;3178;48.730;8.990;2023-02-15T01:27:38;1.30;99.90
6291;DHT22;3178;48.730;8.990;2023-02-15T01:30:03;1.30;99.90
6291;DHT22;3178;48.730;8.990;2023-02-15T01:32:30;1.20;99.90
6291;DHT22;3178;48.730;8.990;2023-02-15T01:34:56;1.20;99.90
6291;DHT22;3178;48.730;8.990;2023-02-15T01:37:21;1.20;99.90
6291;DHT22;3178;48.730;8.990;2023-02-15T01:39:47;1.20;99.90
6291;DHT22;3178;48.730;8.990;2023-02-15T01:42:21;1.20;99.90
6291;DHT22;3178;48.730;8.990;2023-02-15T01:44:52;1.20;99.90
6291;DHT22;3178;48.730;8.990;2023-02-15T01:49:51;1.10;99.90
6291;DHT22;3178;48.730;8.990;2023-02-15T01:52:21;1.10;99.90
6291;DHT22;3178;48.730;8.990;2023-02-15T01:54:47;1.10;99.90
6291;DHT22;3178;48.730;8.990;2023-02-15T01:57:22;1.10;99.90
6291;DHT22;3178;48.730;8.990;2023-02-15T01:59:53;1.10;99.90
6291;DHT22;3178;48.730;8.990;2023-02-15T02:02:20;1.00;99.90
6291;DHT22;3178;48.730;8.990;2023-02-15T02:04:51;1.00;99.90
6291;DHT22;3178;48.730;8.990;2023-02-15T02:07:21;1.00;99.90
6291;DHT22;3178;48.730;8.990;2023-02-15T02:09:48;1.00;99.90
6291;DHT22;3178;48.730;8.990;2023-02-15T02:12:15;1.00;99.90
6291;DHT22;3178;48.730;8.990;2023-02-15T02:14:42;1.00;99.90
6291;DHT22;3178;48.730;8.990;2023-02-15T02:17:47;0.90;99.90
6291;DHT22;3178;48.730;8.990;2023-02-15T02:23:14;0.80;99.90
6291;DHT22;3178;48.730;8.990;2023-02-15T02:34:19;0.80;99.90
6291;DHT22;3178;48.730;8.990;2023-02-15T02:37:17;0.80;99.90
6291;DHT22;3178;48.730;8.990;2023-02-15T02:42:49;0.80;99.90
6291;DHT22;3178;48.730;8.990;2023-02-15T02:45:32;0.70;99.90
6291;DHT22;3178;48.730;8.990;2023-02-15T02:48:09;0.70;99.90
6291;DHT22;3178;48.730;8.990;2023-02-15T02:50:38;0.70;99.90
6291;DHT22;3178;48.730;8.990;2023-02-15T02:53:03;0.70;99.90
6291;DHT22;3178;48.730;8.990;2023-02-15T02:55:33;0.70;99.90
6291;DHT22;3178;48.730;8.990;2023-02-15T02:58:11;0.70;99.90
6291;DHT22;3178;48.730;8.990;2023-02-15T03:00:51;0.70;99.90
6291;DHT22;3178;48.730;8.990;2023-02-15T03:03:31;0.60;99.90
6291;DHT22;3178;48.730;8.990;2023-02-15T03:06:01;0.60;99.90
6291;DHT22;3178;48.730;8.990;2023-02-15T03:08:34;0.60;99.90
6291;DHT22;3178;48.730;8.990;2023-02-15T03:11:01;0.60;99.90
6291;DHT22;3178;48.730;8.990;2023-02-15T03:13:28;0.60;99.90
6291;DHT22;3178;48.730;8.990;2023-02-15T03:15:54;0.50;99.90
6291;DHT22;3178;48.730;8.990;2023-02-15T03:18:44;0.50;99.90
6291;DHT22;3178;48.730;8.990;2023-02-15T03:21:20;0.50;99.90
6291;DHT22;3178;48.730;8.990;2023-02-15T03:23:50;0.40;99.90
6291;DHT22;3178;48.730;8.990;2023-02-15T03:26:18;0.40;99.90
6291;DHT22;3178;48.730;8.990;2023-02-15T03:28:46;0.40;99.90
6291;DHT22;3178;48.730;8.990;2023-02-15T03:31:14;0.40;99.90
6291;DHT22;3178;48.730;8.990;2023-02-15T03:33:58;0.50;99.90
6291;DHT22;3178;48.730;8.990;2023-02-15T03:36:44;0.50;99.90
6291;DHT22;3178;48.730;8.990;2023-02-15T03:39:35;0.40;99.90
6291;DHT22;3178;48.730;8.990;2023-02-15T03:45:03;0.40;99.90
6291;DHT22;3178;48.730;8.990;2023-02-15T03:47:36;0.40;99.90
6291;DHT22;3178;48.730;8.990;2023-02-15T03:52:52;0.30;99.90
6291;DHT22;3178;48.730;8.990;2023-02-15T03:55:17;0.30;99.90
6291;DHT22;3178;48.730;8.990;2023-02-15T03:57:44;0.30;99.90
6291;DHT22;3178;48.730;8.990;2023-02-15T04:00:28;0.20;99.90
6291;DHT22;3178;48.730;8.990;2023-02-15T04:05:42;0.30;99.90
6291;DHT22;3178;48.730;8.990;2023-02-15T04:08:09;0.30;99.90
6291;DHT22;3178;48.730;8.990;2023-02-15T04:10:34;0.30;99.90
6291;DHT22;3178;48.730;8.990;2023-02-15T04:13:19;0.30;99.90
6291;DHT22;3178;48.730;8.990;2023-02-15T04:15:45;0.30;99.90
6291;DHT22;3178;48.730;8.990;2023-02-15T04:18:37;0.20;99.90
6291;DHT22;3178;48.730;8.990;2023-02-15T04:21:22;0.20;99.90
6291;DHT22;3178;48.730;8.990;2023-02-15T04:24:08;0.20;99.90
6291;DHT22;3178;48.730;8.990;2023-02-15T04:26:52;0.20;99.90
6291;DHT22;3178;48.730;8.990;2023-02-15T04:29:21;0.20;99.90
6291;DHT22;3178;48.730;8.990;2023-02-15T04:31:47;0.20;99.90
6291;DHT22;3178;48.730;8.990;2023-02-15T04:34:14;0.20;99.90
6291;DHT22;3178;48.730;8.990;2023-02-15T04:36:39;0.20;99.90
6291;DHT22;3178;48.730;8.990;2023-02-15T04:39:06;0.20;99.90
6291;DHT22;3178;48.730;8.990;2023-02-15T04:41:32;0.20;99.90
6291;DHT22;3178;48.730;8.990;2023-02-15T04:43:58;0.20;99.90
6291;DHT22;3178;48.730;8.990;2023-02-15T04:46:25;0.20;99.90
6291;DHT22;3178;48.730;8.990;2023-02-15T04:48:50;0.10;99.90
6291;DHT22;3178;48.730;8.990;2023-02-15T04:51:16;0.10;99.90
6291;DHT22;3178;48.730;8.990;2023-02-15T04:53:41;0.10;99.90
6291;DHT22;3178;48.730;8.990;2023-02-15T04:56:07;0.10;99.90
6291;DHT22;3178;48.730;8.990;2023-02-15T04:58:32;0.10;99.90
6291;DHT22;3178;48.730;8.990;2023-02-15T05:00:58;0.00;99.90
6291;DHT22;3178;48.730;8.990;2023-02-15T05:03:25;0.00;99.90
6291;DHT22;3178;48.730;8.990;2023-02-15T05:05:50;0.00;99.90
6291;DHT22;3178;48.730;8.990;2023-02-15T05:08:16;0.00;99.90
6291;DHT22;3178;48.730;8.990;2023-02-15T05:10:41;0.00;99.90
6291;DHT22;3178;48.730;8.990;2023-02-15T05:13:07;0.00;99.90
6291;DHT22;3178;48.730;8.990;2023-02-15T05:15:32;0.00;99.90
6291;DHT22;3178;48.730;8.990;2023-02-15T05:17:58;0.00;99.90
6291;DHT22;3178;48.730;8.990;2023-02-15T05:20:23;0.00;99.90
6291;DHT22;3178;48.730;8.990;2023-02-15T05:22:53;0.00;99.90
6291;DHT22;3178;48.730;8.990;2023-02-15T05:25:19;0.00;99.90
6291;DHT22;3178;48.730;8.990;2023-02-15T05:28:11;0.00;99.90
6291;DHT22;3178;48.730;8.990;2023-02-15T05:30:47;0.00;99.90
6291;DHT22;3178;48.730;8.990;2023-02-15T05:33:13;0.00;99.90
6291;DHT22;3178;48.730;8.990;2023-02-15T05:35:38;-0.10;99.90
6291;DHT22;3178;48.730;8.990;2023-02-15T05:38:04;0.00;99.90
6291;DHT22;3178;48.730;8.990;2023-02-15T05:40:29;-0.10;99.90
6291;DHT22;3178;48.730;8.990;2023-02-15T05:42:56;-0.10;99.90
6291;DHT22;3178;48.730;8.990;2023-02-15T05:45:21;-0.10;99.90
6291;DHT22;3178;48.730;8.990;2023-02-15T05:47:47;-0.10;99.90
6291;DHT22;3178;48.730;8.990;2023-02-15T05:50:12;-0.10;99.90
6291;DHT22;3178;48.730;8.990;2023-02-15T05:52:38;-0.10;99.90
6291;DHT22;3178;48.730;8.990;2023-02-15T05:55:04;-0.10;99.90
6291;DHT22;3178;48.730;8.990;2023-02-15T05:57:30;-0.10;99.90
6291;DHT22;3178;48.730;8.990;2023-02-15T05:59:56;-0.10;99.90
6291;DHT22;3178;48.730;8.990;2023-02-15T06:02:21;-0.20;99.90
6291;DHT22;3178;48.730;8.990;2023-02-15T06:04:47;-0.10;99.90
6291;DHT22;3178;48.730;8.990;2023-02-15T06:07:12;-0.20;99.90
6291;DHT22;3178;48.730;8.990;2023-02-15T06:09:38;-0.20;99.90
6291;DHT22;3178;48.730;8.990;2023-02-15T06:12:04;-0.20;99.90
6291;DHT22;3178;48.730;8.990;2023-02-15T06:14:29;-0.20;99.90
6291;DHT22;3178;48.730;8.990;2023-02-15T06:16:55;-0.20;99.90
6291;DHT22;3178;48.730;8.990;2023-02-15T06:19:20;-0.20;99.90
6291;DHT22;3178;48.730;8.990;2023-02-15T06:21:46;-0.20;99.90
6291;DHT22;3178;48.730;8.990;2023-02-15T06:24:12;-0.20;99.90
6291;DHT22;3178;48.730;8.990;2023-02-15T06:26:37;-0.30;99.90
6291;DHT22;3178;48.730;8.990;2023-02-15T06:29:03;-0.30;99.90
6291;DHT22;3178;48.730;8.990;2023-02-15T06:31:28;-0.30;99.90
6291;DHT22;3178;48.730;8.990;2023-02-15T06:33:54;-0.30;99.90
6291;DHT22;3178;48.730;8.990;2023-02-15T06:36:26;-0.30;99.90
6291;DHT22;3178;48.730;8.990;2023-02-15T06:38:52;-0.30;99.90
6291;DHT22;3178;48.730;8.990;2023-02-15T06:41:18;-0.30;99.90
6291;DHT22;3178;48.730;8.990;2023-02-15T06:43:43;-0.30;99.90
6291;DHT22;3178;48.730;8.990;2023-02-15T06:46:09;-0.30;99.90
6291;DHT22;3178;48.730;8.990;2023-02-15T06:48:34;-0.30;99.90
6291;DHT22;3178;48.730;8.990;2023-02-15T06:51:00;-0.30;99.90
6291;DHT22;3178;48.730;8.990;2023-02-15T06:53:26;-0.30;99.90
6291;DHT22;3178;48.730;8.990;2023-02-15T06:55:51;-0.30;99.90
6291;DHT22;3178;48.730;8.990;2023-02-15T06:58:17;-0.30;99.90
6291;DHT22;3178;48.730;8.990;2023-02-15T07:00:42;-0.30;99.90
6291;DHT22;3178;48.730;8.990;2023-02-15T07:03:07;-0.30;99.90
6291;DHT22;3178;48.730;8.990;2023-02-15T07:05:34;-0.30;99.90
6291;DHT22;3178;48.730;8.990;2023-02-15T07:08:00;-0.30;99.90
6291;DHT22;3178;48.730;8.990;2023-02-15T07:10:27;-0.30;99.90
6291;DHT22;3178;48.730;8.990;2023-02-15T07:12:53;-0.30;99.90
6291;DHT22;3178;48.730;8.990;2023-02-15T07:15:19;-0.30;99.90
6291;DHT22;3178;48.730;8.990;2023-02-15T07:17:46;-0.20;99.90
6291;DHT22;3178;48.730;8.990;2023-02-15T07:20:15;-0.20;99.90
6291;DHT22;3178;48.730;8.990;2023-02-15T07:22:41;-0.20;99.90
6291;DHT22;3178;48.730;8.990;2023-02-15T07:25:09;-0.10;99.90
6291;DHT22;3178;48.730;8.990;2023-02-15T07:27:35;0.00;99.90
6291;DHT22;3178;48.730;8.990;2023-02-15T07:30:01;0.00;99.90
6291;DHT22;3178;48.730;8.990;2023-02-15T07:32:31;0.10;99.90
6291;DHT22;3178;48.730;8.990;2023-02-15T07:34:57;0.20;99.90
6291;DHT22;3178;48.730;8.990;2023-02-15T07:37:23;0.30;99.90
6291;DHT22;3178;48.730;8.990;2023-02-15T07:39:48;0.30;99.90
6291;DHT22;3178;48.730;8.990;2023-02-15T07:42:14;0.40;99.90
6291;DHT22;3178;48.730;8.990;2023-02-15T07:44:40;0.50;99.90
6291;DHT22;3178;48.730;8.990;2023-02-15T07:47:05;0.60;99.90
6291;DHT22;3178;48.730;8.990;2023-02-15T07:49:31;0.90;99.90
6291;DHT22;3178;48.730;8.990;2023-02-15T07:51:57;0.90;99.90
6291;DHT22;3178;48.730;8.990;2023-02-15T07:54:22;1.10;99.90
6291;DHT22;3178;48.730;8.990;2023-02-15T07:56:48;1.30;99.90
6291;DHT22;3178;48.730;8.990;2023-02-15T07:59:13;1.60;99.90
6291;DHT22;3178;48.730;8.990;2023-02-15T08:01:39;1.80;99.90
6291;DHT22;3178;48.730;8.990;2023-02-15T08:04:06;2.10;99.90
6291;DHT22;3178;48.730;8.990;2023-02-15T08:06:34;2.40;99.90
6291;DHT22;3178;48.730;8.990;2023-02-15T08:09:02;2.60;99.90
6291;DHT22;3178;48.730;8.990;2023-02-15T08:11:31;2.80;99.90
6291;DHT22;3178;48.730;8.990;2023-02-15T08:16:49;3.30;99.90
6291;DHT22;3178;48.730;8.990;2023-02-15T08:19:26;3.40;99.90
6291;DHT22;3178;48.730;8.990;2023-02-15T08:21:54;3.60;99.90
6291;DHT22;3178;48.730;8.990;2023-02-15T08:24:23;3.80;99.90
6291;DHT22;3178;48.730;8.990;2023-02-15T08:26:50;3.90;99.90
6291;DHT22;3178;48.730;8.990;2023-02-15T08:29:18;4.20;99.90
6291;DHT22;3178;48.730;8.990;2023-02-15T08:31:44;4.30;99.90
6291;DHT22;3178;48.730;8.990;2023-02-15T08:34:13;4.50;99.90
6291;DHT22;3178;48.730;8.990;2023-02-15T08:36:39;4.70;99.90
6291;DHT22;3178;48.730;8.990;2023-02-15T08:39:05;5.10;99.90
6291;DHT22;3178;48.730;8.990;2023-02-15T08:41:33;5.30;99.90
6291;DHT22;3178;48.730;8.990;2023-02-15T08:44:01;5.50;99.90
6291;DHT22;3178;48.730;8.990;2023-02-15T08:46:29;5.80;99.90
6291;DHT22;3178;48.730;8.990;2023-02-15T08:48:55;6.00;99.90
6291;DHT22;3178;48.730;8.990;2023-02-15T08:51:23;6.10;99.90
6291;DHT22;3178;48.730;8.990;2023-02-15T08:53:51;6.30;99.90
6291;DHT22;3178;48.730;8.990;2023-02-15T08:56:19;6.60;99.90
6291;DHT22;3178;48.730;8.990;2023-02-15T08:58:45;6.80;99.90
6291;DHT22;3178;48.730;8.990;2023-02-15T09:01:13;7.00;99.90
6291;DHT22;3178;48.730;8.990;2023-02-15T09:03:43;7.30;99.90
6291;DHT22;3178;48.730;8.990;2023-02-15T09:06:09;7.60;99.90
6291;DHT22;3178;48.730;8.990;2023-02-15T09:08:34;8.00;99.90
6291;DHT22;3178;48.730;8.990;2023-02-15T09:11:07;8.30;99.90
6291;DHT22;3178;48.730;8.990;2023-02-15T09:13:33;8.60;99.90
6291;DHT22;3178;48.730;8.990;2023-02-15T09:16:03;8.80;99.90
6291;DHT22;3178;48.730;8.990;2023-02-15T09:18:31;9.00;99.90
6291;DHT22;3178;48.730;8.990;2023-02-15T09:21:10;9.20;99.90
6291;DHT22;3178;48.730;8.990;2023-02-15T09:23:36;9.40;99.90
6291;DHT22;3178;48.730;8.990;2023-02-15T09:26:04;9.60;99.90
6291;DHT22;3178;48.730;8.990;2023-02-15T09:28:30;9.90;99.90
6291;DHT22;3178;48.730;8.990;2023-02-15T09:31:05;10.10;99.90
6291;DHT22;3178;48.730;8.990;2023-02-15T09:33:30;10.30;99.90
6291;DHT22;3178;48.730;8.990;2023-02-15T09:35:56;10.60;99.90
6291;DHT22;3178;48.730;8.990;2023-02-15T09:38:22;10.70;99.90
6291;DHT22;3178;48.730;8.990;2023-02-15T09:41:03;11.00;99.90
6291;DHT22;3178;48.730;8.990;2023-02-15T09:46:21;11.50;99.90
6291;DHT22;3178;48.730;8.990;2023-02-15T09:49:02;11.60;97.90
6291;DHT22;3178;48.730;8.990;2023-02-15T09:54:49;12.00;99.20
6291;DHT22;3178;48.730;8.990;2023-02-15T09:57:33;12.20;97.80
6291;DHT22;3178;48.730;8.990;2023-02-15T10:03:03;12.60;97.40
6291;DHT22;3178;48.730;8.990;2023-02-15T10:14:43;13.50;96.30
6291;DHT22;3178;48.730;8.990;2023-02-15T10:20:03;14.00;92.90
6291;DHT22;3178;48.730;8.990;2023-02-15T10:26:18;14.60;92.90
6291;DHT22;3178;48.730;8.990;2023-02-15T10:29:14;14.70;91.90
6291;DHT22;3178;48.730;8.990;2023-02-15T10:31:47;14.80;90.80
6291;DHT22;3178;48.730;8.990;2023-02-15T10:35:05;14.90;91.60
6291;DHT22;3178;48.730;8.990;2023-02-15T10:37:41;15.10;90.00
6291;DHT22;3178;48.730;8.990;2023-02-15T10:40:30;15.20;90.20
6291;DHT22;3178;48.730;8.990;2023-02-15T10:45:49;15.50;89.80
6291;DHT22;3178;48.730;8.990;2023-02-15T10:51:10;16.10;84.80
6291;DHT22;3178;48.730;8.990;2023-02-15T10:54:05;16.40;81.30
6291;DHT22;3178;48.730;8.990;2023-02-15T11:00:07;16.80;80.30
6291;DHT22;3178;48.730;8.990;2023-02-15T11:07:44;17.40;76.40
6291;DHT22;3178;48.730;8.990;2023-02-15T11:13:21;17.90;76.50
6291;DHT22;3178;48.730;8.990;2023-02-15T11:16:01;18.00;75.30
6291;DHT22;3178;48.730;8.990;2023-02-15T11:18:36;18.20;74.80
6291;DHT22;3178;48.730;8.990;2023-02-15T11:23:46;18.50;74.50
6291;DHT22;3178;48.730;8.990;2023-02-15T11:26:38;18.70;73.60
6291;DHT22;3178;48.730;8.990;2023-02-15T11:31:57;19.20;72.80
6291;DHT22;3178;48.730;8.990;2023-02-15T11:36:52;19.40;72.80
6291;DHT22;3178;48.730;8.990;2023-02-15T11:39:20;19.60;71.40
6291;DHT22;3178;48.730;8.990;2023-02-15T11:41:53;19.80;66.60
6291;DHT22;3178;48.730;8.990;2023-02-15T11:44:25;20.20;66.90
6291;DHT22;3178;48.730;8.990;2023-02-15T11:46:51;20.40;63.90
6291;DHT22;3178;48.730;8.990;2023-02-15T11:49:34;20.40;59.70
6291;DHT22;3178;48.730;8.990;2023-02-15T11:52:06;20.50;56.90
6291;DHT22;3178;48.730;8.990;2023-02-15T11:54:34;20.60;55.40
6291;DHT22;3178;48.730;8.990;2023-02-15T11:57:15;20.70;56.40
6291;DHT22;3178;48.730;8.990;2023-02-15T11:59:49;20.50;57.50
6291;DHT22;3178;48.730;8.990;2023-02-15T12:02:19;20.40;58.00
6291;DHT22;3178;48.730;8.990;2023-02-15T12:04:53;20.60;58.00
6291;DHT22;3178;48.730;8.990;2023-02-15T12:07:24;20.50;56.60
6291;DHT22;3178;48.730;8.990;2023-02-15T12:12:39;20.60;59.20
6291;DHT22;3178;48.730;8.990;2023-02-15T12:15:10;20.80;59.00
6291;DHT22;3178;48.730;8.990;2023-02-15T12:17:50;20.90;61.00
6291;DHT22;3178;48.730;8.990;2023-02-15T12:23:00;21.10;58.70
6291;DHT22;3178;48.730;8.990;2023-02-15T12:25:36;21.10;58.00
6291;DHT22;3178;48.730;8.990;2023-02-15T12:28:04;21.40;57.10
6291;DHT22;3178;48.730;8.990;2023-02-15T12:30:37;21.20;56.90
6291;DHT22;3178;48.730;8.990;2023-02-15T12:33:13;21.30;55.90
6291;DHT22;3178;48.730;8.990;2023-02-15T12:35:40;21.20;56.90
6291;DHT22;3178;48.730;8.990;2023-02-15T12:40:36;21.10;56.20
6291;DHT22;3178;48.730;8.990;2023-02-15T12:43:02;21.10;56.10
6291;DHT22;3178;48.730;8.990;2023-02-15T12:45:36;21.00;56.10
6291;DHT22;3178;48.730;8.990;2023-02-15T12:48:22;21.20;55.10
6291;DHT22;3178;48.730;8.990;2023-02-15T12:50:49;21.40;55.20
6291;DHT22;3178;48.730;8.990;2023-02-15T12:53:29;21.50;55.40
6291;DHT22;3178;48.730;8.990;2023-02-15T12:55:57;21.50;54.10
6291;DHT22;3178;48.730;8.990;2023-02-15T12:58:25;21.30;55.50
6291;DHT22;3178;48.730;8.990;2023-02-15T13:01:11;21.30;55.40
6291;DHT22;3178;48.730;8.990;2023-02-15T13:03:50;21.10;55.70
6291;DHT22;3178;48.730;8.990;2023-02-15T13:06:18;21.20;55.70
6291;DHT22;3178;48.730;8.990;2023-02-15T13:08:52;21.40;54.60
6291;DHT22;3178;48.730;8.990;2023-02-15T13:11:28;21.60;54.20
6291;DHT22;3178;48.730;8.990;2023-02-15T13:14:03;21.50;52.90
6291;DHT22;3178;48.730;8.990;2023-02-15T13:16:34;21.80;53.70
6291;DHT22;3178;48.730;8.990;2023-02-15T13:19:06;22.00;51.20
6291;DHT22;3178;48.730;8.990;2023-02-15T13:21:36;21.90;52.70
6291;DHT22;3178;48.730;8.990;2023-02-15T13:26:49;22.20;50.70
6291;DHT22;3178;48.730;8.990;2023-02-15T13:29:26;22.00;52.90
6291;DHT22;3178;48.730;8.990;2023-02-15T13:31:54;22.10;54.30
6291;DHT22;3178;48.730;8.990;2023-02-15T13:34:34;22.10;52.40
6291;DHT22;3178;48.730;8.990;2023-02-15T13:37:18;22.00;51.00
6291;DHT22;3178;48.730;8.990;2023-02-15T13:40:01;22.20;50.40
6291;DHT22;3178;48.730;8.990;2023-02-15T13:42:58;22.10;49.10
6291;DHT22;3178;48.730;8.990;2023-02-15T13:53:24;22.20;47.90
6291;DHT22;3178;48.730;8.990;2023-02-15T13:55:57;22.50;48.50
6291;DHT22;3178;48.730;8.990;2023-02-15T13:58:43;22.40;50.00
6291;DHT22;3178;48.730;8.990;2023-02-15T14:12:34;22.30;49.50
6291;DHT22;3178;48.730;8.990;2023-02-15T14:21:16;22.20;46.70
6291;DHT22;3178;48.730;8.990;2023-02-15T14:26:38;22.10;46.90
6291;DHT22;3178;48.730;8.990;2023-02-15T14:29:20;22.30;45.40
6291;DHT22;3178;48.730;8.990;2023-02-15T14:31:53;22.20;45.30
6291;DHT22;3178;48.730;8.990;2023-02-15T14:34:30;22.10;46.10
6291;DHT22;3178;48.730;8.990;2023-02-15T14:37:00;22.10;46.90
6291;DHT22;3178;48.730;8.990;2023-02-15T14:39:44;22.00;47.90
6291;DHT22;3178;48.730;8.990;2023-02-15T14:42:40;21.70;46.60
6291;DHT22;3178;48.730;8.990;2023-02-15T14:47:46;21.60;49.60
6291;DHT22;3178;48.730;8.990;2023-02-15T14:50:52;21.70;50.00
6291;DHT22;3178;48.730;8.990;2023-02-15T14:58:37;20.90;54.30
6291;DHT22;3178;48.730;8.990;2023-02-15T15:01:07;20.30;53.50
6291;DHT22;3178;48.730;8.990;2023-02-15T15:03:34;19.90;54.60
6291;DHT22;3178;48.730;8.990;2023-02-15T15:06:03;19.40;55.80
6291;DHT22;3178;48.730;8.990;2023-02-15T15:08:37;19.00;56.40
6291;DHT22;3178;48.730;8.990;2023-02-15T15:13:59;18.30;56.40
6291;DHT22;3178;48.730;8.990;2023-02-15T15:16:49;18.00;56.70
6291;DHT22;3178;48.730;8.990;2023-02-15T15:22:31;17.30;57.20
6291;DHT22;3178;48.730;8.990;2023-02-15T15:25:01;16.90;56.90
6291;DHT22;3178;48.730;8.990;2023-02-15T15:38:47;15.90;59.40
6291;DHT22;3178;48.730;8.990;2023-02-15T15:41:38;15.50;59.60
6291;DHT22;3178;48.730;8.990;2023-02-15T15:50:15;14.90;61.90
6291;DHT22;3178;48.730;8.990;2023-02-15T15:52:47;14.70;62.40
6291;DHT22;3178;48.730;8.990;2023-02-15T15:55:22;14.50;62.70
6291;DHT22;3178;48.730;8.990;2023-02-15T15:57:53;14.40;63.60
6291;DHT22;3178;48.730;8.990;2023-02-15T16:00:34;14.20;63.20
6291;DHT22;3178;48.730;8.990;2023-02-15T16:03:00;14.10;64.30
6291;DHT22;3178;48.730;8.990;2023-02-15T16:05:26;14.00;63.80
6291;DHT22;3178;48.730;8.990;2023-02-15T16:07:51;13.80;63.70
6291;DHT22;3178;48.730;8.990;2023-02-15T16:10:24;13.70;64.20
6291;DHT22;3178;48.730;8.990;2023-02-15T16:12:51;13.50;64.70
6291;DHT22;3178;48.730;8.990;2023-02-15T16:17:50;13.40;67.20
6291;DHT22;3178;48.730;8.990;2023-02-15T16:22:56;13.10;69.00
6291;DHT22;3178;48.730;8.990;2023-02-15T16:25:35;13.00;69.20
6291;DHT22;3178;48.730;8.990;2023-02-15T16:28:08;12.90;69.80
6291;DHT22;3178;48.730;8.990;2023-02-15T16:30:37;12.80;70.40
6291;DHT22;3178;48.730;8.990;2023-02-15T16:33:15;12.60;70.70
6291;DHT22;3178;48.730;8.990;2023-02-15T16:35:58;12.40;70.90
6291;DHT22;3178;48.730;8.990;2023-02-15T16:44:20;11.90;71.20
6291;DHT22;3178;48.730;8.990;2023-02-15T16:46:51;11.70;71.20
6291;DHT22;3178;48.730;8.990;2023-02-15T16:49:24;11.50;71.60
6291;DHT22;3178;48.730;8.990;2023-02-15T16:52:02;11.40;71.60
6291;DHT22;3178;48.730;8.990;2023-02-15T16:54:31;11.10;72.00
6291;DHT22;3178;48.730;8.990;2023-02-15T16:56:57;11.00;72.60
6291;DHT22;3178;48.730;8.990;2023-02-15T17:00:04;10.80;72.70
6291;DHT22;3178;48.730;8.990;2023-02-15T17:02:26;10.70;72.90
6291;DHT22;3178;48.730;8.990;2023-02-15T17:05:16;10.50;73.30
6291;DHT22;3178;48.730;8.990;2023-02-15T17:10:34;10.20;74.40
6291;DHT22;3178;48.730;8.990;2023-02-15T17:13:04;10.00;75.20
6291;DHT22;3178;48.730;8.990;2023-02-15T17:16:21;10.00;76.20
6291;DHT22;3178;48.730;8.990;2023-02-15T17:18:37;9.80;78.30
6291;DHT22;3178;48.730;8.990;2023-02-15T17:21:13;9.60;79.10
6291;DHT22;3178;48.730;8.990;2023-02-15T17:23:44;9.50;81.20
6291;DHT22;3178;48.730;8.990;2023-02-15T17:26:22;9.40;81.50
6291;DHT22;3178;48.730;8.990;2023-02-15T17:28:55;9.30;82.30
6291;DHT22;3178;48.730;8.990;2023-02-15T17:31:26;9.10;83.70
6291;DHT22;3178;48.730;8.990;2023-02-15T17:33:55;9.00;84.60
6291;DHT22;3178;48.730;8.990;2023-02-15T17:36:24;8.90;86.20
6291;DHT22;3178;48.730;8.990;2023-02-15T17:39:19;8.80;86.80
6291;DHT22;3178;48.730;8.990;2023-02-15T17:41:45;8.70;88.90
6291;DHT22;3178;48.730;8.990;2023-02-15T17:44:12;8.60;89.70
6291;DHT22;3178;48.730;8.990;2023-02-15T17:46:41;8.50;90.00
6291;DHT22;3178;48.730;8.990;2023-02-15T17:49:10;8.40;90.20
6291;DHT22;3178;48.730;8.990;2023-02-15T17:51:37;8.30;90.10
6291;DHT22;3178;48.730;8.990;2023-02-15T17:54:03;8.30;90.20
6291;DHT22;3178;48.730;8.990;2023-02-15T17:56:47;8.20;90.50
6291;DHT22;3178;48.730;8.990;2023-02-15T17:59:12;8.00;90.90
6291;DHT22;3178;48.730;8.990;2023-02-15T18:01:46;8.00;91.10
6291;DHT22;3178;48.730;8.990;2023-02-15T18:04:32;7.90;91.40
6291;DHT22;3178;48.730;8.990;2023-02-15T18:07:17;7.80;92.30
6291;DHT22;3178;48.730;8.990;2023-02-15T18:10:12;7.70;92.90
6291;DHT22;3178;48.730;8.990;2023-02-15T18:12:56;7.60;93.20
6291;DHT22;3178;48.730;8.990;2023-02-15T18:15:22;7.50;93.80
6291;DHT22;3178;48.730;8.990;2023-02-15T18:17:48;7.40;94.30
6291;DHT22;3178;48.730;8.990;2023-02-15T18:20:23;7.40;94.50
6291;DHT22;3178;48.730;8.990;2023-02-15T18:22:51;7.30;94.60
6291;DHT22;3178;48.730;8.990;2023-02-15T18:25:18;7.20;95.20
6291;DHT22;3178;48.730;8.990;2023-02-15T18:27:45;7.10;95.60
6291;DHT22;3178;48.730;8.990;2023-02-15T18:30:21;7.00;95.80
6291;DHT22;3178;48.730;8.990;2023-02-15T18:32:49;6.90;96.30
6291;DHT22;3178;48.730;8.990;2023-02-15T18:35:18;6.90;96.50
6291;DHT22;3178;48.730;8.990;2023-02-15T18:37:44;6.80;97.20
6291;DHT22;3178;48.730;8.990;2023-02-15T18:40:17;6.70;97.20
6291;DHT22;3178;48.730;8.990;2023-02-15T18:42:44;6.60;97.40
6291;DHT22;3178;48.730;8.990;2023-02-15T18:47:43;6.50;97.90
6291;DHT22;3178;48.730;8.990;2023-02-15T18:50:11;6.40;98.40
6291;DHT22;3178;48.730;8.990;2023-02-15T18:52:37;6.30;98.50
6291;DHT22;3178;48.730;8.990;2023-02-15T18:55:33;6.30;99.00
6291;DHT22;3178;48.730;8.990;2023-02-15T18:57:59;6.20;99.10
6291;DHT22;3178;48.730;8.990;2023-02-15T19:00:31;6.20;99.30
6291;DHT22;3178;48.730;8.990;2023-02-15T19:02:58;6.10;99.30
6291;DHT22;3178;48.730;8.990;2023-02-15T19:05:25;6.00;99.40
6291;DHT22;3178;48.730;8.990;2023-02-15T19:07:54;6.00;99.10
6291;DHT22;3178;48.730;8.990;2023-02-15T19:10:23;6.00;99.40
6291;DHT22;3178;48.730;8.990;2023-02-15T19:12:50;5.90;99.60
6291;DHT22;3178;48.730;8.990;2023-02-15T19:15:27;5.90;99.70
6291;DHT22;3178;48.730;8.990;2023-02-15T19:17:54;5.80;99.90
6291;DHT22;3178;48.730;8.990;2023-02-15T19:20:25;5.80;99.90